createdAt,value
2019-04-27T00:01:57.005Z,11.50
2019-04-27T00:04:48.709Z,11.50
2019-04-27T00:07:27.012Z,11.40
2019-04-27T00:10:00.790Z,11.40
2019-04-27T00:12:30.189Z,11.30
2019-04-27T00:14:59.457Z,11.30
2019-04-27T00:17:49.284Z,11.20
2019-04-27T00:20:40.709Z,11.20
2019-04-27T00:23:13.293Z,11.20
2019-04-27T00:25:44.068Z,11.20
2019-04-27T00:28:13.273Z,11.10
2019-04-27T00:30:43.865Z,11.10
2019-04-27T00:33:14.437Z,11.10
2019-04-27T00:36:03.964Z,11.20
2019-04-27T00:38:49.555Z,11.10
2019-04-27T00:41:19.318Z,11.20
2019-04-27T00:43:49.414Z,11.20
2019-04-27T00:46:19.162Z,11.20
2019-04-27T00:48:48.396Z,11.10
2019-04-27T00:51:17.987Z,11.10
2019-04-27T00:53:47.080Z,11.00
2019-04-27T00:56:44.933Z,11.00
2019-04-27T00:59:52.949Z,11.00
2019-04-27T01:02:40.956Z,11.00
2019-04-27T01:05:20.973Z,10.90
2019-04-27T01:07:50.628Z,10.90
2019-04-27T01:10:20.112Z,10.90
2019-04-27T01:12:49.544Z,10.90
2019-04-27T01:15:19.304Z,10.80
2019-04-27T01:17:49.069Z,10.70
2019-04-27T01:20:18.573Z,10.70
2019-04-27T01:22:49.162Z,10.70
2019-04-27T01:25:19.195Z,10.60
2019-04-27T01:28:05.937Z,10.50
2019-04-27T01:30:49.153Z,10.50
2019-04-27T01:33:19.787Z,10.40
2019-04-27T01:35:49.609Z,10.40
2019-04-27T01:38:19.259Z,10.40
2019-04-27T01:40:49.794Z,10.30
2019-04-27T01:43:22.785Z,10.30
2019-04-27T01:45:52.780Z,10.30
2019-04-27T01:48:25.719Z,10.30
2019-04-27T01:50:54.208Z,10.20
2019-04-27T01:53:24.018Z,10.20
2019-04-27T01:55:53.853Z,10.20
2019-04-27T01:58:23.953Z,10.10
2019-04-27T02:01:09.703Z,10.10
2019-04-27T02:04:01.285Z,10.10
2019-04-27T02:06:31.077Z,10.10
2019-04-27T02:09:00.567Z,10.10
2019-04-27T02:11:29.653Z,10.10
2019-04-27T02:13:59.904Z,10.10
2019-04-27T02:19:05.026Z,10.20
2019-04-27T02:21:34.134Z,10.20
2019-04-27T02:24:04.608Z,10.20
2019-04-27T02:26:35.403Z,10.10
2019-04-27T02:29:16.401Z,10.20
2019-04-27T02:32:10.451Z,10.10
2019-04-27T02:34:50.497Z,10.10
2019-04-27T02:37:20.651Z,10.10
2019-04-27T02:39:50.158Z,10.10
2019-04-27T02:42:20.578Z,10.10
2019-04-27T02:44:49.973Z,10.10
2019-04-27T02:47:20.808Z,10.10
2019-04-27T02:49:51.127Z,10.10
2019-04-27T02:52:30.224Z,10.10
2019-04-27T02:55:00.064Z,10.10
2019-04-27T02:57:30.372Z,10.10
2019-04-27T03:00:01.419Z,10.10
2019-04-27T03:02:40.118Z,10.20
2019-04-27T03:05:13.164Z,10.20
2019-04-27T03:07:42.880Z,10.10
2019-04-27T03:10:13.292Z,9.90
2019-04-27T03:12:47.156Z,9.90
2019-04-27T03:15:49.670Z,9.80
2019-04-27T03:18:33.741Z,9.80
2019-04-27T03:21:12.743Z,9.80
2019-04-27T03:23:41.256Z,9.80
2019-04-27T03:26:16.248Z,9.80
2019-04-27T03:28:45.366Z,9.80
2019-04-27T03:31:14.798Z,9.80
2019-04-27T03:33:44.129Z,9.80
2019-04-27T03:36:16.015Z,9.80
2019-04-27T03:38:45.317Z,9.80
2019-04-27T03:41:14.353Z,9.80
2019-04-27T03:43:43.800Z,9.80
2019-04-27T03:46:12.900Z,9.80
2019-04-27T03:48:42.414Z,9.80
2019-04-27T03:51:20.717Z,9.90
2019-04-27T03:54:07.777Z,9.90
2019-04-27T03:57:02.586Z,9.80
2019-04-27T03:59:34.622Z,9.90
2019-04-27T04:02:03.971Z,9.90
2019-04-27T04:04:33.265Z,9.90
2019-04-27T04:07:15.992Z,9.90
2019-04-27T04:09:50.059Z,10.00
2019-04-27T04:12:25.101Z,10.00
2019-04-27T04:14:55.200Z,10.00
2019-04-27T04:17:24.817Z,10.10
2019-04-27T04:19:57.986Z,10.10
2019-04-27T04:22:24.988Z,10.10
2019-04-27T04:24:54.499Z,10.10
2019-04-27T04:27:23.720Z,10.10
2019-04-27T04:29:53.121Z,10.10
2019-04-27T04:32:22.433Z,10.20
2019-04-27T04:34:53.113Z,10.20
2019-04-27T04:37:22.226Z,10.20
2019-04-27T04:39:53.693Z,10.20
2019-04-27T04:42:33.241Z,10.20
2019-04-27T04:45:33.603Z,10.30
2019-04-27T04:48:09.949Z,10.50
2019-04-27T04:50:39.948Z,10.60
2019-04-27T04:53:13.026Z,10.60
2019-04-27T04:55:42.273Z,10.70
2019-04-27T04:58:11.425Z,10.70
2019-04-27T05:00:40.861Z,10.70
2019-04-27T05:03:09.996Z,10.70
2019-04-27T05:05:39.455Z,10.70
2019-04-27T05:08:10.209Z,10.80
2019-04-27T05:10:39.984Z,10.80
2019-04-27T05:13:11.037Z,10.80
2019-04-27T05:15:40.227Z,10.80
2019-04-27T05:18:09.573Z,10.80
2019-04-27T05:20:48.655Z,10.90
2019-04-27T05:23:18.719Z,10.90
2019-04-27T05:25:49.280Z,11.00
2019-04-27T05:28:18.883Z,11.00
2019-04-27T05:30:50.080Z,11.00
2019-04-27T05:33:19.229Z,11.00
2019-04-27T05:35:52.446Z,11.00
2019-04-27T05:38:21.618Z,11.10
2019-04-27T05:40:50.813Z,11.10
2019-04-27T05:43:25.598Z,11.30
2019-04-27T05:46:42.529Z,11.30
2019-04-27T05:49:18.834Z,11.40
2019-04-27T05:51:50.133Z,11.40
2019-04-27T05:54:20.341Z,11.40
2019-04-27T05:56:49.793Z,11.30
2019-04-27T05:59:19.808Z,11.40
2019-04-27T06:01:49.471Z,11.40
2019-04-27T06:04:19.360Z,11.40
2019-04-27T06:06:49.884Z,11.40
2019-04-27T06:09:19.585Z,11.40
2019-04-27T06:11:50.729Z,11.40
2019-04-27T06:14:19.929Z,11.30
2019-04-27T06:16:49.378Z,11.30
2019-04-27T06:19:19.725Z,11.20
2019-04-27T06:21:50.012Z,11.30
2019-04-27T06:24:19.356Z,11.30
2019-04-27T06:26:49.914Z,11.30
2019-04-27T06:29:19.745Z,11.40
2019-04-27T06:31:49.661Z,11.40
2019-04-27T06:34:19.530Z,11.30
2019-04-27T06:36:53.161Z,11.30
2019-04-27T06:39:22.661Z,11.30
2019-04-27T06:41:56.044Z,11.30
2019-04-27T06:44:25.792Z,11.30
2019-04-27T06:46:56.432Z,11.30
2019-04-27T06:49:27.237Z,11.30
2019-04-27T06:51:56.499Z,11.30
2019-04-27T06:54:25.796Z,11.40
2019-04-27T06:56:55.064Z,11.40
2019-04-27T06:59:24.162Z,11.40
2019-04-27T07:04:29.744Z,11.40
2019-04-27T07:07:01.509Z,11.50
2019-04-27T07:09:30.101Z,11.50
2019-04-27T07:11:59.597Z,11.60
2019-04-27T07:14:29.445Z,11.50
2019-04-27T07:16:59.256Z,11.50
2019-04-27T07:19:29.278Z,11.50
2019-04-27T07:21:59.415Z,11.50
2019-04-27T07:27:04.348Z,11.40
2019-04-27T07:29:33.820Z,11.30
2019-04-27T07:34:38.769Z,11.20
2019-04-27T07:37:09.742Z,11.20
2019-04-27T07:39:39.183Z,11.20
2019-04-27T07:42:09.055Z,11.20
2019-04-27T07:44:45.844Z,11.30
2019-04-27T07:47:23.152Z,11.30
2019-04-27T07:49:52.428Z,11.30
2019-04-27T07:52:21.689Z,11.40
2019-04-27T07:54:50.811Z,11.40
2019-04-27T07:57:20.072Z,11.50
2019-04-27T07:59:50.178Z,11.60
2019-04-27T08:02:19.578Z,11.60
2019-04-27T08:04:50.531Z,11.50
2019-04-27T08:07:19.896Z,11.60
2019-04-27T08:09:49.796Z,11.60
2019-04-27T08:12:20.814Z,11.70
2019-04-27T08:14:50.627Z,11.80
2019-04-27T08:17:19.736Z,11.80
2019-04-27T08:19:49.616Z,11.80
2019-04-27T08:22:19.522Z,11.70
2019-04-27T08:24:49.582Z,11.70
2019-04-27T08:27:56.521Z,11.70
2019-04-27T08:30:56.526Z,11.70
2019-04-27T08:33:25.961Z,11.70
2019-04-27T08:35:59.105Z,11.50
2019-04-27T08:38:29.016Z,11.60
2019-04-27T08:41:02.191Z,11.70
2019-04-27T08:43:31.640Z,11.80
2019-04-27T08:46:00.740Z,11.80
2019-04-27T08:48:34.698Z,11.90
2019-04-27T08:51:00.828Z,12.00
2019-04-27T08:53:30.368Z,12.10
2019-04-27T08:56:00.066Z,12.10
2019-04-27T08:58:29.484Z,12.00
2019-04-27T09:00:59.110Z,11.90
2019-04-27T09:03:29.419Z,12.00
2019-04-27T09:06:19.010Z,12.10
2019-04-27T09:09:00.452Z,12.20
2019-04-27T09:11:39.616Z,12.20
2019-04-27T09:14:25.236Z,12.30
2019-04-27T09:17:03.464Z,12.20
2019-04-27T09:19:42.076Z,12.20
2019-04-27T09:22:16.596Z,12.10
2019-04-27T09:24:46.683Z,12.10
2019-04-27T09:27:17.913Z,12.10
2019-04-27T09:29:49.797Z,12.20
2019-04-27T09:32:19.217Z,12.20
2019-04-27T09:34:48.720Z,12.20
2019-04-27T09:37:18.025Z,12.10
2019-04-27T09:39:47.362Z,12.00
2019-04-27T09:42:16.804Z,12.00
2019-04-27T09:44:47.479Z,11.90
2019-04-27T09:47:16.934Z,11.70
2019-04-27T09:49:46.210Z,11.40
2019-04-27T09:52:24.312Z,11.20
2019-04-27T09:54:48.081Z,11.20
2019-04-27T09:57:17.417Z,11.40
2019-04-27T09:59:46.588Z,11.50
2019-04-27T10:02:16.510Z,11.40
2019-04-27T10:04:46.264Z,11.40
2019-04-27T10:07:16.525Z,11.50
2019-04-27T10:09:47.342Z,11.50
2019-04-27T10:12:16.757Z,11.50
2019-04-27T10:14:47.665Z,11.50
2019-04-27T10:17:17.493Z,11.60
2019-04-27T10:19:47.022Z,11.50
2019-04-27T10:22:16.154Z,11.50
2019-04-27T10:24:45.674Z,11.60
2019-04-27T10:27:16.126Z,11.80
2019-04-27T10:29:46.759Z,12.00
2019-04-27T10:32:16.374Z,12.10
2019-04-27T10:34:45.845Z,12.20
2019-04-27T10:37:16.182Z,12.10
2019-04-27T10:39:46.039Z,12.10
2019-04-27T10:42:16.083Z,12.00
2019-04-27T10:44:46.200Z,11.90
2019-04-27T10:47:16.150Z,11.90
2019-04-27T10:49:46.566Z,11.90
2019-04-27T10:52:16.784Z,11.90
2019-04-27T10:54:45.937Z,12.20
2019-04-27T10:57:15.885Z,12.30
2019-04-27T10:59:47.504Z,12.40
2019-04-27T11:02:16.636Z,12.30
2019-04-27T11:04:56.586Z,12.30
2019-04-27T11:07:30.005Z,12.10
2019-04-27T11:09:59.299Z,11.80
2019-04-27T11:12:28.992Z,11.70
2019-04-27T11:14:58.398Z,11.80
2019-04-27T11:17:27.606Z,11.70
2019-04-27T11:19:57.100Z,11.70
2019-04-27T11:22:26.212Z,11.60
2019-04-27T11:24:56.356Z,11.50
2019-04-27T11:27:25.691Z,11.60
2019-04-27T11:29:56.307Z,11.60
2019-04-27T11:32:25.732Z,11.70
2019-04-27T11:35:25.731Z,11.70
2019-04-27T11:37:55.907Z,11.60
2019-04-27T11:40:25.378Z,11.80
2019-04-27T11:42:57.034Z,11.80
2019-04-27T11:45:26.446Z,11.80
2019-04-27T11:47:57.126Z,11.90
2019-04-27T11:50:28.504Z,11.80
2019-04-27T11:52:57.634Z,11.40
2019-04-27T11:55:27.430Z,11.10
2019-04-27T11:58:00.668Z,10.90
2019-04-27T12:00:30.272Z,10.80
2019-04-27T12:02:59.455Z,10.90
2019-04-27T12:05:28.602Z,11.00
2019-04-27T12:07:57.684Z,11.20
2019-04-27T12:10:26.962Z,11.50
2019-04-27T12:12:56.396Z,11.50
2019-04-27T12:15:26.493Z,11.50
2019-04-27T12:17:56.304Z,11.80
2019-04-27T12:20:25.987Z,11.90
2019-04-27T12:22:55.402Z,12.00
2019-04-27T12:25:24.629Z,12.20
2019-04-27T12:28:10.724Z,12.10
2019-04-27T12:31:17.345Z,12.10
2019-04-27T12:33:46.624Z,12.20
2019-04-27T12:36:15.926Z,12.20
2019-04-27T12:38:48.634Z,12.30
2019-04-27T12:41:17.757Z,12.50
2019-04-27T12:43:47.458Z,12.50
2019-04-27T12:46:16.724Z,12.70
2019-04-27T12:48:46.375Z,12.90
2019-04-27T12:51:15.889Z,13.30
2019-04-27T12:54:16.397Z,13.40
2019-04-27T12:57:03.738Z,13.50
2019-04-27T12:59:51.301Z,13.70
2019-04-27T13:02:26.261Z,13.60
2019-04-27T13:04:56.793Z,13.80
2019-04-27T13:07:27.131Z,13.70
2019-04-27T13:09:56.528Z,13.90
2019-04-27T13:12:27.311Z,14.10
2019-04-27T13:14:56.505Z,14.20
2019-04-27T13:17:26.498Z,14.20
2019-04-27T13:19:56.126Z,14.10
2019-04-27T13:22:25.446Z,14.20
2019-04-27T13:24:56.539Z,14.20
2019-04-27T13:27:26.991Z,14.40
2019-04-27T13:29:57.472Z,14.40
2019-04-27T13:32:27.058Z,14.50
2019-04-27T13:34:56.766Z,14.60
2019-04-27T13:37:38.778Z,14.80
2019-04-27T13:40:11.759Z,15.30
2019-04-27T13:42:49.880Z,15.10
2019-04-27T13:45:27.705Z,14.70
2019-04-27T13:48:15.881Z,14.40
2019-04-27T13:50:48.531Z,14.20
2019-04-27T13:53:18.051Z,14.20
2019-04-27T13:55:48.529Z,14.10
2019-04-27T14:00:52.769Z,13.70
2019-04-27T14:03:22.525Z,13.70
2019-04-27T14:05:52.616Z,13.80
2019-04-27T14:08:23.498Z,14.00
2019-04-27T14:10:52.937Z,14.10
2019-04-27T14:13:23.056Z,14.30
2019-04-27T14:15:52.424Z,14.30
2019-04-27T14:18:21.872Z,14.70
2019-04-27T14:20:52.390Z,14.90
2019-04-27T14:23:23.414Z,15.10
2019-04-27T14:25:52.690Z,15.00
2019-04-27T14:28:21.894Z,14.80
2019-04-27T14:30:51.429Z,14.80
2019-04-27T14:33:20.786Z,15.00
2019-04-27T14:35:50.399Z,15.10
2019-04-27T14:38:20.109Z,15.10
2019-04-27T14:43:28.519Z,15.20
2019-04-27T14:45:58.378Z,15.20
2019-04-27T14:48:29.560Z,15.00
2019-04-27T14:50:59.240Z,14.90
2019-04-27T14:53:28.407Z,14.90
2019-04-27T14:55:58.455Z,14.90
2019-04-27T14:58:28.559Z,15.00
2019-04-27T15:01:00.052Z,15.00
2019-04-27T15:03:29.500Z,14.80
2019-04-27T15:05:58.713Z,14.80
2019-04-27T15:08:28.733Z,14.40
2019-04-27T15:10:58.689Z,14.10
2019-04-27T15:13:27.987Z,14.10
2019-04-27T15:15:57.177Z,13.90
2019-04-27T15:18:30.736Z,13.60
2019-04-27T15:21:02.738Z,13.50
2019-04-27T15:23:34.799Z,13.50
2019-04-27T15:26:04.273Z,13.70
2019-04-27T15:28:35.418Z,13.90
2019-04-27T15:31:27.042Z,14.00
2019-04-27T15:34:27.438Z,14.10
2019-04-27T15:37:35.407Z,14.20
2019-04-27T15:40:36.372Z,14.30
2019-04-27T15:46:13.848Z,14.30
2019-04-27T15:48:43.029Z,14.10
2019-04-27T15:51:17.291Z,14.00
2019-04-27T15:53:45.848Z,14.00
2019-04-27T15:56:15.381Z,13.90
2019-04-27T15:58:44.825Z,13.90
2019-04-27T16:01:14.084Z,13.70
2019-04-27T16:03:43.512Z,13.70
2019-04-27T16:06:12.916Z,13.50
2019-04-27T16:08:45.259Z,13.40
2019-04-27T16:11:16.656Z,13.20
2019-04-27T16:13:44.840Z,13.10
2019-04-27T16:16:13.944Z,13.00
2019-04-27T16:18:43.019Z,12.90
2019-04-27T16:21:12.281Z,12.80
2019-04-27T16:23:43.126Z,12.70
2019-04-27T16:26:15.096Z,12.50
2019-04-27T16:28:49.555Z,12.40
2019-04-27T16:31:15.457Z,12.30
2019-04-27T16:33:44.593Z,12.20
2019-04-27T16:36:14.010Z,12.10
2019-04-27T16:38:57.340Z,12.00
2019-04-27T16:41:28.133Z,11.90
2019-04-27T16:43:58.137Z,11.90
2019-04-27T16:46:28.496Z,11.80
2019-04-27T16:48:59.292Z,11.70
2019-04-27T16:51:35.934Z,11.60
2019-04-27T16:54:00.640Z,11.60
2019-04-27T16:56:30.144Z,11.60
2019-04-27T16:59:11.607Z,11.70
2019-04-27T17:01:31.194Z,11.70
2019-04-27T17:04:00.327Z,11.80
2019-04-27T17:06:30.452Z,11.80
2019-04-27T17:09:05.707Z,11.80
2019-04-27T17:11:30.416Z,11.90
2019-04-27T17:14:34.916Z,11.90
2019-04-27T17:17:28.841Z,12.00
2019-04-27T17:20:00.475Z,12.00
2019-04-27T17:22:31.456Z,12.00
2019-04-27T17:25:00.952Z,12.00
2019-04-27T17:27:39.157Z,12.10
2019-04-27T17:30:09.068Z,12.00
2019-04-27T17:32:56.689Z,12.00
2019-04-27T17:35:25.855Z,12.00
2019-04-27T17:37:59.435Z,12.00
2019-04-27T17:40:29.985Z,12.00
2019-04-27T17:43:06.408Z,12.00
2019-04-27T17:45:36.049Z,12.00
2019-04-27T17:48:06.948Z,12.00
2019-04-27T17:50:34.599Z,12.00
2019-04-27T17:53:08.120Z,11.90
2019-04-27T17:55:38.688Z,11.90
2019-04-27T17:58:09.200Z,12.00
2019-04-27T18:00:41.690Z,12.00
2019-04-27T18:03:12.655Z,12.00
2019-04-27T18:05:43.776Z,11.90
2019-04-27T18:08:13.564Z,11.90
2019-04-27T18:10:44.140Z,11.90
2019-04-27T18:13:13.244Z,11.90
2019-04-27T18:15:45.770Z,11.90
2019-04-27T18:18:40.363Z,11.90
2019-04-27T18:21:10.577Z,11.80
2019-04-27T18:23:45.374Z,11.20
2019-04-27T18:26:19.474Z,10.90
2019-04-27T18:28:53.620Z,10.60
2019-04-27T18:31:20.594Z,10.40
2019-04-27T18:33:49.940Z,10.10
2019-04-27T18:36:19.216Z,10.00
2019-04-27T18:38:49.799Z,10.00
2019-04-27T18:41:19.161Z,9.90
2019-04-27T18:43:52.143Z,9.80
2019-04-27T18:46:24.652Z,9.80
2019-04-27T18:49:11.498Z,9.80
2019-04-27T18:52:04.330Z,9.80
2019-04-27T18:54:33.125Z,9.80
2019-04-27T18:57:04.916Z,9.90
2019-04-27T18:59:34.164Z,9.90
2019-04-27T19:02:03.750Z,10.00
2019-04-27T19:04:32.913Z,10.10
2019-04-27T19:07:02.646Z,10.10
2019-04-27T19:09:31.810Z,10.10
2019-04-27T19:12:01.321Z,10.20
2019-04-27T19:14:30.989Z,10.20
2019-04-27T19:17:00.170Z,10.10
2019-04-27T19:19:29.787Z,10.00
2019-04-27T19:21:59.072Z,10.10
2019-04-27T19:24:28.348Z,10.10
2019-04-27T19:27:17.867Z,10.20
2019-04-27T19:29:48.452Z,10.20
2019-04-27T19:32:18.043Z,10.20
2019-04-27T19:34:50.792Z,10.20
2019-04-27T19:37:19.973Z,10.10
2019-04-27T19:39:49.842Z,10.10
2019-04-27T19:42:20.369Z,10.10
2019-04-27T19:44:50.010Z,10.10
2019-04-27T19:47:19.329Z,10.10
2019-04-27T19:49:49.105Z,10.10
2019-04-27T19:52:22.644Z,10.10
2019-04-27T19:55:08.410Z,10.10
2019-04-27T19:57:52.061Z,10.10
2019-04-27T20:00:49.361Z,10.20
2019-04-27T20:03:22.840Z,10.30
2019-04-27T20:05:52.197Z,10.30
2019-04-27T20:08:24.297Z,10.30
2019-04-27T20:10:53.557Z,10.30
2019-04-27T20:13:22.732Z,10.30
2019-04-27T20:15:51.917Z,10.30
2019-04-27T20:18:21.044Z,10.30
2019-04-27T20:20:50.209Z,10.30
2019-04-27T20:23:22.218Z,10.30
2019-04-27T20:25:51.288Z,10.30
2019-04-27T20:28:20.685Z,10.30
2019-04-27T20:30:51.967Z,10.40
2019-04-27T20:33:21.237Z,10.40
2019-04-27T20:35:51.140Z,10.50
2019-04-27T20:38:21.370Z,10.40
2019-04-27T20:40:51.414Z,10.40
2019-04-27T20:43:24.498Z,10.40
2019-04-27T20:45:53.485Z,10.30
2019-04-27T20:48:23.068Z,10.30
2019-04-27T20:50:52.297Z,10.30
2019-04-27T20:53:24.751Z,10.40
2019-04-27T20:55:55.162Z,10.40
2019-04-27T20:58:24.996Z,10.40
2019-04-27T21:00:55.515Z,10.40
2019-04-27T21:03:36.517Z,10.40
2019-04-27T21:06:24.691Z,10.40
2019-04-27T21:08:58.300Z,10.40
2019-04-27T21:11:43.217Z,10.40
2019-04-27T21:14:12.484Z,10.30
2019-04-27T21:16:42.902Z,10.30
2019-04-27T21:19:12.064Z,10.30
2019-04-27T21:21:42.801Z,10.30
2019-04-27T21:26:48.058Z,10.30
2019-04-27T21:29:17.208Z,10.30
2019-04-27T21:31:46.993Z,10.30
2019-04-27T21:34:16.802Z,10.30
2019-04-27T21:36:46.736Z,10.30
2019-04-27T21:39:21.596Z,10.30
2019-04-27T21:41:51.721Z,10.40
2019-04-27T21:44:21.769Z,10.30
2019-04-27T21:46:51.923Z,10.30
2019-04-27T21:49:23.080Z,10.30
2019-04-27T21:52:03.801Z,10.40
2019-04-27T21:57:11.140Z,10.30
2019-04-27T21:59:40.257Z,10.40
2019-04-27T22:02:14.636Z,10.50
2019-04-27T22:04:43.807Z,10.50
2019-04-27T22:07:13.045Z,10.50
2019-04-27T22:09:43.268Z,10.40
2019-04-27T22:12:12.513Z,10.50
2019-04-27T22:14:41.873Z,10.40
2019-04-27T22:17:11.173Z,10.40
2019-04-27T22:19:41.544Z,10.40
2019-04-27T22:22:21.177Z,10.40
2019-04-27T22:24:51.329Z,10.30
2019-04-27T22:27:20.797Z,10.30
2019-04-27T22:29:52.675Z,10.30
2019-04-27T22:32:21.877Z,10.40
2019-04-27T22:34:51.021Z,10.40
2019-04-27T22:37:21.311Z,10.50
2019-04-27T22:40:09.639Z,10.40
2019-04-27T22:42:52.189Z,10.50
2019-04-27T22:45:24.997Z,10.50
2019-04-27T22:47:54.056Z,10.40
2019-04-27T22:50:23.540Z,10.40
2019-04-27T22:52:53.209Z,10.40
2019-04-27T22:55:22.361Z,10.50
2019-04-27T22:58:01.567Z,10.40
2019-04-27T23:00:47.961Z,10.40
2019-04-27T23:03:22.764Z,10.50
2019-04-27T23:05:52.497Z,10.50
2019-04-27T23:08:22.670Z,10.50
2019-04-27T23:10:52.067Z,10.40
2019-04-27T23:13:21.977Z,10.50
2019-04-27T23:15:53.069Z,10.40
2019-04-27T23:18:22.653Z,10.40
2019-04-27T23:20:52.334Z,10.40
2019-04-27T23:23:21.824Z,10.40
2019-04-27T23:25:51.377Z,10.40
2019-04-27T23:28:21.013Z,10.40
2019-04-27T23:31:12.396Z,10.40
2019-04-27T23:33:45.364Z,10.40
2019-04-27T23:36:14.498Z,10.40
2019-04-27T23:41:19.805Z,10.40
2019-04-27T23:43:48.884Z,10.40
2019-04-27T23:46:18.110Z,10.40
2019-04-27T23:48:47.212Z,10.40
2019-04-27T23:51:32.594Z,10.40
2019-04-27T23:54:01.927Z,10.40
2019-04-27T23:56:31.851Z,10.50
2019-04-27T23:59:01.210Z,10.40
